createdAt,value
2019-03-17T00:00:49.479Z,10.12
2019-03-17T00:03:39.305Z,10.09
2019-03-17T00:06:29.179Z,9.79
2019-03-17T00:09:30.827Z,9.72
2019-03-17T00:12:13.289Z,9.71
2019-03-17T00:15:05.800Z,9.68
2019-03-17T00:17:47.085Z,9.73
2019-03-17T00:20:36.811Z,9.72
2019-03-17T00:23:20.466Z,9.80
2019-03-17T00:26:10.141Z,9.78
2019-03-17T00:31:56.727Z,9.89
2019-03-17T00:34:46.402Z,9.89
2019-03-17T00:37:29.269Z,9.83
2019-03-17T00:43:14.770Z,9.80
2019-03-17T00:46:16.777Z,9.68
2019-03-17T00:49:01.730Z,9.53
2019-03-17T00:51:44.491Z,9.56
2019-03-17T00:54:15.165Z,9.48
2019-03-17T00:57:04.946Z,9.36
2019-03-17T00:59:47.718Z,9.30
2019-03-17T01:02:37.676Z,9.16
2019-03-17T01:08:42.002Z,9.04
2019-03-17T01:11:31.728Z,9.08
2019-03-17T01:14:14.440Z,9.13
2019-03-17T01:17:15.994Z,9.10
2019-03-17T01:19:58.530Z,9.14
2019-03-17T01:22:40.954Z,9.24
2019-03-17T01:25:42.848Z,9.36
2019-03-17T01:28:26.879Z,9.34
2019-03-17T01:31:16.733Z,9.29
2019-03-17T01:34:06.528Z,9.12
2019-03-17T01:36:56.312Z,9.26
2019-03-17T01:39:46.157Z,9.08
2019-03-17T01:42:49.258Z,9.24
2019-03-17T01:45:32.077Z,9.12
2019-03-17T01:48:33.264Z,9.14
2019-03-17T01:51:15.786Z,9.20
2019-03-17T01:57:02.582Z,9.16
2019-03-17T01:59:52.460Z,9.02
2019-03-17T02:02:54.258Z,9.03
2019-03-17T02:05:36.827Z,8.96
2019-03-17T02:11:41.734Z,8.76
2019-03-17T02:17:25.838Z,8.61
2019-03-17T02:20:29.049Z,8.57
2019-03-17T02:23:11.695Z,8.59
2019-03-17T02:26:01.655Z,8.62
2019-03-17T02:31:46.445Z,8.78
2019-03-17T02:34:36.444Z,8.87
2019-03-17T02:37:26.230Z,8.90
2019-03-17T02:40:16.015Z,8.92
2019-03-17T02:43:05.897Z,9.13
2019-03-17T02:45:55.874Z,9.22
2019-03-17T02:48:45.778Z,9.24
2019-03-17T02:55:04.780Z,9.21
2019-03-17T02:57:48.009Z,9.24
2019-03-17T03:03:32.351Z,9.30
2019-03-17T03:06:22.028Z,9.32
2019-03-17T03:12:45.518Z,9.18
2019-03-17T03:15:28.107Z,9.37
2019-03-17T03:21:27.014Z,9.39
2019-03-17T03:24:27.587Z,9.56
2019-03-17T03:27:12.237Z,9.68
2019-03-17T03:29:54.909Z,9.94
2019-03-17T03:32:55.869Z,9.91
2019-03-17T03:35:39.907Z,9.95
2019-03-17T03:38:24.350Z,9.82
2019-03-17T03:41:26.129Z,9.87
2019-03-17T03:44:10.833Z,10.00
2019-03-17T03:46:53.674Z,9.94
2019-03-17T03:49:57.125Z,9.87
2019-03-17T03:52:39.607Z,9.84
2019-03-17T03:55:29.333Z,9.93
2019-03-17T04:01:33.516Z,9.91
2019-03-17T04:07:18.829Z,10.16
2019-03-17T04:10:20.199Z,10.15
2019-03-17T04:13:03.578Z,10.14
2019-03-17T04:15:47.211Z,10.13
2019-03-17T04:21:34.082Z,10.12
2019-03-17T04:24:23.972Z,10.16
2019-03-17T04:27:13.732Z,10.19
2019-03-17T04:30:15.147Z,10.21
2019-03-17T04:32:58.702Z,10.21
2019-03-17T04:35:59.416Z,10.13
2019-03-17T04:38:43.866Z,10.21
2019-03-17T04:41:33.983Z,10.07
2019-03-17T04:47:28.000Z,10.32
2019-03-17T04:50:11.484Z,10.36
2019-03-17T04:53:01.194Z,10.29
2019-03-17T04:55:44.272Z,10.14
2019-03-17T05:01:35.948Z,10.19
2019-03-17T05:04:25.775Z,10.00
2019-03-17T05:10:29.945Z,10.03
2019-03-17T05:16:15.478Z,10.14
2019-03-17T05:19:05.345Z,10.26
2019-03-17T05:21:55.038Z,10.27
2019-03-17T05:24:38.270Z,10.23
2019-03-17T05:27:28.414Z,10.15
2019-03-17T05:30:18.120Z,10.08
2019-03-17T05:33:07.800Z,10.03
2019-03-17T05:38:52.166Z,9.86
2019-03-17T05:41:35.107Z,10.09
2019-03-17T05:47:19.928Z,10.08
2019-03-17T05:53:04.511Z,10.17
2019-03-17T05:56:05.539Z,10.15
2019-03-17T05:58:47.845Z,10.15
2019-03-17T06:01:37.576Z,10.14
2019-03-17T06:04:20.103Z,10.16
2019-03-17T06:07:21.821Z,10.17
2019-03-17T06:10:05.617Z,10.11
2019-03-17T06:12:55.648Z,10.18
2019-03-17T06:15:45.421Z,10.21
2019-03-17T06:18:35.172Z,10.23
2019-03-17T06:21:24.971Z,10.29
2019-03-17T06:24:14.666Z,10.33
2019-03-17T06:27:04.392Z,10.35
2019-03-17T06:29:54.098Z,10.41
2019-03-17T06:32:36.821Z,10.32
2019-03-17T06:38:21.632Z,10.43
2019-03-17T06:41:22.630Z,10.46
2019-03-17T06:44:05.111Z,10.49
2019-03-17T06:46:54.875Z,10.51
2019-03-17T06:52:53.723Z,10.50
2019-03-17T06:55:43.587Z,10.47
2019-03-17T06:58:33.541Z,10.43
2019-03-17T07:06:50.068Z,10.44
2019-03-17T07:09:33.081Z,10.54
2019-03-17T07:15:16.124Z,10.65
2019-03-17T07:18:05.935Z,11.11
2019-03-17T07:23:58.804Z,12.85
2019-03-17T07:26:41.075Z,13.60
2019-03-17T07:29:30.791Z,14.02
2019-03-17T07:32:20.514Z,13.92
2019-03-17T07:35:10.289Z,13.98
2019-03-17T07:37:57.005Z,14.48
2019-03-17T07:43:38.720Z,16.42
2019-03-17T07:46:28.637Z,16.54
2019-03-17T07:49:30.265Z,16.82
2019-03-17T07:52:13.164Z,17.58
2019-03-17T07:57:57.497Z,17.15
2019-03-17T08:00:47.248Z,16.85
2019-03-17T08:06:34.616Z,16.95
2019-03-17T08:09:24.344Z,16.63
2019-03-17T08:12:06.834Z,16.41
2019-03-17T08:14:57.765Z,16.69
2019-03-17T08:17:42.134Z,16.77
2019-03-17T08:20:31.889Z,16.50
2019-03-17T08:23:15.474Z,16.08
2019-03-17T08:29:00.459Z,14.72
2019-03-17T08:35:19.180Z,13.49
2019-03-17T08:38:01.696Z,13.17
2019-03-17T08:43:54.093Z,12.92
2019-03-17T08:46:37.468Z,12.87
2019-03-17T08:49:40.256Z,12.80
2019-03-17T08:52:23.367Z,12.74
2019-03-17T08:55:13.045Z,12.63
2019-03-17T08:57:55.096Z,12.71
2019-03-17T09:00:44.808Z,12.86
2019-03-17T09:03:27.179Z,13.08
2019-03-17T09:12:20.852Z,13.56
2019-03-17T09:14:51.470Z,13.97
2019-03-17T09:17:41.702Z,14.33
2019-03-17T09:20:31.440Z,14.36
2019-03-17T09:23:13.844Z,14.84
2019-03-17T09:26:03.564Z,15.00
2019-03-17T09:28:47.362Z,15.21
2019-03-17T09:31:37.129Z,15.10
2019-03-17T09:34:21.590Z,14.94
2019-03-17T09:40:06.529Z,14.69
2019-03-17T09:43:07.842Z,14.46
2019-03-17T09:45:50.883Z,14.45
2019-03-17T09:48:40.647Z,14.34
2019-03-17T09:51:30.447Z,14.18
2019-03-17T09:54:15.027Z,14.17
2019-03-17T09:56:57.353Z,14.09
2019-03-17T09:59:47.122Z,14.05
2019-03-17T10:02:36.904Z,13.83
2019-03-17T10:05:38.229Z,13.94
2019-03-17T10:08:21.142Z,13.90
2019-03-17T10:11:10.940Z,13.90
2019-03-17T10:14:00.677Z,13.89
2019-03-17T10:16:50.412Z,13.87
2019-03-17T10:19:33.157Z,13.75
2019-03-17T10:22:23.071Z,13.94
2019-03-17T10:25:13.031Z,13.93
2019-03-17T10:28:02.976Z,13.87
2019-03-17T10:30:52.721Z,13.85
2019-03-17T10:33:42.467Z,13.83
2019-03-17T10:36:32.183Z,13.88
2019-03-17T10:39:14.240Z,13.88
2019-03-17T10:42:04.053Z,13.98
2019-03-17T10:44:53.814Z,13.85
2019-03-17T10:47:43.645Z,13.90
2019-03-17T10:50:33.397Z,14.02
2019-03-17T10:53:23.273Z,14.23
2019-03-17T10:56:13.141Z,14.37
2019-03-17T11:02:05.103Z,14.36
2019-03-17T11:04:48.048Z,14.28
2019-03-17T11:07:37.856Z,14.31
2019-03-17T11:10:38.801Z,14.49
2019-03-17T11:13:21.484Z,14.82
2019-03-17T11:19:07.504Z,15.07
2019-03-17T11:21:57.211Z,15.00
2019-03-17T11:24:41.284Z,14.89
2019-03-17T11:27:23.648Z,15.00
2019-03-17T11:33:47.807Z,15.28
2019-03-17T11:36:37.638Z,15.19
2019-03-17T11:42:45.657Z,15.21
2019-03-17T11:45:35.386Z,15.13
2019-03-17T11:48:19.685Z,15.12
2019-03-17T11:54:06.244Z,15.19
2019-03-17T11:56:56.160Z,15.30
2019-03-17T11:59:45.948Z,15.27
2019-03-17T12:06:16.311Z,14.88
2019-03-17T12:09:00.618Z,14.68
2019-03-17T12:11:50.555Z,14.88
2019-03-17T12:14:52.049Z,15.03
2019-03-17T12:17:35.087Z,14.97
2019-03-17T12:23:28.630Z,15.29
2019-03-17T12:26:12.298Z,15.51
2019-03-17T12:29:02.268Z,15.67
2019-03-17T12:31:51.980Z,16.01
2019-03-17T12:34:41.695Z,16.12
2019-03-17T12:37:24.436Z,15.94
2019-03-17T12:40:44.926Z,15.82
2019-03-17T12:43:27.582Z,15.85
2019-03-17T12:46:17.396Z,16.04
2019-03-17T12:49:07.204Z,16.12
2019-03-17T12:52:08.695Z,15.82
2019-03-17T12:54:50.992Z,15.87
2019-03-17T13:00:55.340Z,15.87
2019-03-17T13:03:56.720Z,15.71
2019-03-17T13:06:39.342Z,15.67
2019-03-17T13:09:29.123Z,15.65
2019-03-17T13:12:30.352Z,15.55
2019-03-17T13:15:12.659Z,15.46
2019-03-17T13:18:02.412Z,15.36
2019-03-17T13:20:45.276Z,15.41
2019-03-17T13:23:34.989Z,15.45
2019-03-17T13:26:17.155Z,15.46
2019-03-17T13:32:08.779Z,15.52
2019-03-17T13:34:58.475Z,15.35
2019-03-17T13:37:41.245Z,15.50
2019-03-17T13:43:26.163Z,15.70
2019-03-17T13:46:16.035Z,15.70
2019-03-17T13:49:05.883Z,15.68
2019-03-17T13:52:07.243Z,15.66
2019-03-17T13:54:49.947Z,15.50
2019-03-17T13:57:51.662Z,15.42
2019-03-17T14:00:34.239Z,15.30
2019-03-17T14:03:23.979Z,14.95
2019-03-17T14:06:20.935Z,14.69
2019-03-17T14:09:22.660Z,14.35
2019-03-17T14:12:08.549Z,14.29
2019-03-17T14:14:51.572Z,14.17
2019-03-17T14:17:53.383Z,14.21
2019-03-17T14:20:35.793Z,14.13
2019-03-17T14:23:37.237Z,14.25
2019-03-17T14:26:19.789Z,14.22
2019-03-17T14:29:09.723Z,14.25
2019-03-17T14:31:59.485Z,14.05
2019-03-17T14:34:49.210Z,14.09
2019-03-17T14:37:39.231Z,14.10
2019-03-17T14:40:22.787Z,14.05
2019-03-17T14:43:12.504Z,13.93
2019-03-17T14:45:55.157Z,13.81
2019-03-17T14:51:40.724Z,13.57
2019-03-17T14:54:30.443Z,13.53
2019-03-17T14:57:20.167Z,13.26
2019-03-17T15:00:12.768Z,13.04
2019-03-17T15:02:55.431Z,13.01
2019-03-17T15:05:45.152Z,13.01
2019-03-17T15:08:28.289Z,12.73
2019-03-17T15:11:18.022Z,12.50
2019-03-17T15:14:02.148Z,12.28
2019-03-17T15:16:32.865Z,12.07
2019-03-17T15:19:22.572Z,11.78
2019-03-17T15:22:05.284Z,11.65
2019-03-17T15:27:50.089Z,10.79
2019-03-17T15:30:39.890Z,10.47
2019-03-17T15:36:24.014Z,10.12
2019-03-17T15:39:13.956Z,9.83
2019-03-17T15:42:22.948Z,9.62
2019-03-17T15:45:14.495Z,9.12
2019-03-17T15:48:04.519Z,8.61
2019-03-17T15:50:54.380Z,8.32
2019-03-17T15:57:13.243Z,8.36
2019-03-17T15:59:55.206Z,8.06
2019-03-17T16:02:45.024Z,7.82
2019-03-17T16:05:34.818Z,7.47
2019-03-17T16:08:24.503Z,7.37
2019-03-17T16:10:55.244Z,7.25
2019-03-17T16:13:45.044Z,7.12
2019-03-17T16:16:34.744Z,7.06
2019-03-17T16:19:17.425Z,7.03
2019-03-17T16:22:07.267Z,6.95
2019-03-17T16:24:50.584Z,6.88
2019-03-17T16:27:40.317Z,6.78
2019-03-17T16:30:23.358Z,6.29
2019-03-17T16:33:13.186Z,6.55
2019-03-17T16:35:55.248Z,6.58
2019-03-17T16:38:44.969Z,6.52
2019-03-17T16:41:43.394Z,6.33
2019-03-17T16:44:19.201Z,6.22
2019-03-17T16:50:06.006Z,6.09
2019-03-17T16:55:58.605Z,5.87
2019-03-17T17:01:44.315Z,5.72
2019-03-17T17:04:45.255Z,5.72
2019-03-17T17:07:29.929Z,5.61
2019-03-17T17:10:14.124Z,5.49
2019-03-17T17:13:03.987Z,5.50
2019-03-17T17:15:53.776Z,5.60
2019-03-17T17:18:43.669Z,5.56
2019-03-17T17:21:26.941Z,5.54
2019-03-17T17:24:09.947Z,5.36
2019-03-17T17:27:20.647Z,5.31
2019-03-17T17:30:03.743Z,5.27
2019-03-17T17:32:53.615Z,5.28
2019-03-17T17:35:43.431Z,5.22
2019-03-17T17:41:27.819Z,5.13
2019-03-17T17:44:31.047Z,5.15
2019-03-17T17:47:16.122Z,5.29
2019-03-17T17:53:00.088Z,5.38
2019-03-17T17:55:49.941Z,5.39
2019-03-17T17:58:32.372Z,5.33
2019-03-17T18:04:16.193Z,5.32
2019-03-17T18:07:06.081Z,5.24
2019-03-17T18:13:17.360Z,5.14
2019-03-17T18:16:00.747Z,5.04
2019-03-17T18:18:43.092Z,5.14
2019-03-17T18:21:44.501Z,5.05
2019-03-17T18:24:26.834Z,5.05
2019-03-17T18:27:18.229Z,4.99
2019-03-17T18:29:49.058Z,4.95
2019-03-17T18:32:38.806Z,4.95
2019-03-17T18:35:21.263Z,5.00
2019-03-17T18:38:11.014Z,4.95
2019-03-17T18:41:00.915Z,4.95
2019-03-17T18:43:50.695Z,4.91
2019-03-17T18:46:40.472Z,4.98
2019-03-17T18:49:30.224Z,5.00
2019-03-17T18:52:19.956Z,4.90
2019-03-17T18:55:03.365Z,4.88
2019-03-17T18:57:53.287Z,4.85
2019-03-17T19:00:43.180Z,4.88
2019-03-17T19:03:32.923Z,4.76
2019-03-17T19:06:22.782Z,4.86
2019-03-17T19:09:06.888Z,4.96
2019-03-17T19:11:56.684Z,4.98
2019-03-17T19:14:46.467Z,4.99
2019-03-17T19:17:36.287Z,4.98
2019-03-17T19:20:26.099Z,4.99
2019-03-17T19:23:15.824Z,4.84
2019-03-17T19:25:58.570Z,4.89
2019-03-17T19:28:48.328Z,4.89
2019-03-17T19:31:30.716Z,4.70
2019-03-17T19:34:20.602Z,4.84
2019-03-17T19:37:02.923Z,4.80
2019-03-17T19:39:52.799Z,4.77
2019-03-17T19:42:35.243Z,4.71
2019-03-17T19:45:25.150Z,4.77
2019-03-17T19:48:08.612Z,4.71
2019-03-17T19:53:52.724Z,4.55
2019-03-17T19:56:35.225Z,4.58
2019-03-17T20:05:07.093Z,4.40
2019-03-17T20:07:51.371Z,4.55
2019-03-17T20:10:41.074Z,4.55
2019-03-17T20:13:42.424Z,4.61
2019-03-17T20:16:25.200Z,4.55
2019-03-17T20:18:55.869Z,4.45
2019-03-17T20:21:26.705Z,4.63
2019-03-17T20:24:16.416Z,4.63
2019-03-17T20:26:58.833Z,4.60
2019-03-17T20:29:48.636Z,4.61
2019-03-17T20:32:38.412Z,4.60
2019-03-17T20:35:20.971Z,4.56
2019-03-17T20:38:10.737Z,4.53
2019-03-17T20:41:00.430Z,4.50
2019-03-17T20:44:09.962Z,4.47
2019-03-17T20:47:12.088Z,4.44
2019-03-17T20:49:54.465Z,4.45
2019-03-17T20:55:28.440Z,4.50
2019-03-17T21:01:12.203Z,4.45
2019-03-17T21:04:01.980Z,4.47
2019-03-17T21:09:54.794Z,4.49
2019-03-17T21:15:46.337Z,4.48
2019-03-17T21:21:31.471Z,4.53
2019-03-17T21:24:21.225Z,4.49
2019-03-17T21:27:10.967Z,4.52
2019-03-17T21:29:54.769Z,4.52
2019-03-17T21:32:44.501Z,4.44
2019-03-17T21:35:27.338Z,4.47
2019-03-17T21:38:17.219Z,4.50
2019-03-17T21:41:07.522Z,4.44
2019-03-17T21:43:59.328Z,4.42
2019-03-17T21:46:42.826Z,4.39
2019-03-17T21:49:32.569Z,4.35
2019-03-17T21:52:22.363Z,4.38
2019-03-17T21:55:12.259Z,4.47
2019-03-17T21:58:07.784Z,4.51
2019-03-17T22:00:46.457Z,4.41
2019-03-17T22:03:47.185Z,4.41
2019-03-17T22:06:28.545Z,4.42
2019-03-17T22:18:25.591Z,4.37
2019-03-17T22:21:08.421Z,4.32
2019-03-17T22:23:58.223Z,4.28
2019-03-17T22:33:13.774Z,4.32
2019-03-17T22:36:03.697Z,4.35
2019-03-17T22:39:06.471Z,4.36
2019-03-17T22:41:49.072Z,4.34
2019-03-17T22:47:15.690Z,4.41
2019-03-17T22:50:17.776Z,4.44
2019-03-17T22:52:59.723Z,4.35
2019-03-17T22:55:49.524Z,4.33
2019-03-17T22:58:39.297Z,4.32
2019-03-17T23:01:22.270Z,4.36
2019-03-17T23:04:12.077Z,4.27
2019-03-17T23:07:01.832Z,4.25
2019-03-17T23:09:51.522Z,4.29
2019-03-17T23:12:41.250Z,4.34
2019-03-17T23:18:27.062Z,4.31
2019-03-17T23:21:16.862Z,4.32
2019-03-17T23:24:06.580Z,4.30
2019-03-17T23:26:49.070Z,4.29
2019-03-17T23:29:57.948Z,4.03
2019-03-17T23:36:01.918Z,4.17
2019-03-17T23:38:51.720Z,4.18
2019-03-17T23:41:41.526Z,4.20
2019-03-17T23:44:31.358Z,4.14
2019-03-17T23:47:21.144Z,4.10
2019-03-17T23:50:22.915Z,4.17
2019-03-17T23:53:04.903Z,4.10
2019-03-17T23:55:54.692Z,4.17
2019-03-17T23:58:44.514Z,4.19
